Terminal Aerodrome Forecast
Issued by NWS

Home | Current Version | Previous Version | Text Only | Print | Product List | Glossary On
Versions: 1 2 3 4 5 6 7 8 9 10 11 12 13 14 15 16 17 18 19 20 21 22 23 24 25 26
000
FTUS43 KDVN 232100 AAA
TAFCID
TAF AMD
KCID 232131Z 2322/2418 14006KT 4SM -RA BR OVC005
      TEMPO 2322/2323 1SM -RA BR OVC004
     FM232300 12003KT 3/4SM -RADZ BR OVC004
     FM240500 31016G22KT 3SM -RA BR OVC008
     FM241000 32020G30KT 1SM -SN BR OVC007=

USA.gov is the U.S. government's official web portal to all federal, state and local government web resources and services.